sensor_id;sensor_type;location;lat;lon;timestamp;P1;durP1;ratioP1;P2;durP2;ratioP2
61806;SDS011;47726;52.766;6.606;2023-03-13T00:00:47;31.88;;;6.32;;
61806;SDS011;47726;52.766;6.606;2023-03-13T00:03:14;37.08;;;6.65;;
61806;SDS011;47726;52.766;6.606;2023-03-13T00:05:39;34.65;;;6.60;;
61806;SDS011;47726;52.766;6.606;2023-03-13T00:08:05;33.78;;;6.80;;
61806;SDS011;47726;52.766;6.606;2023-03-13T00:10:30;35.13;;;6.57;;
61806;SDS011;47726;52.766;6.606;2023-03-13T00:12:56;31.70;;;7.20;;
61806;SDS011;47726;52.766;6.606;2023-03-13T00:15:21;33.33;;;6.45;;
61806;SDS011;47726;52.766;6.606;2023-03-13T00:17:47;31.35;;;6.57;;
61806;SDS011;47726;52.766;6.606;2023-03-13T00:20:12;30.73;;;6.32;;
61806;SDS011;47726;52.766;6.606;2023-03-13T00:22:41;29.33;;;6.35;;
61806;SDS011;47726;52.766;6.606;2023-03-13T00:25:07;27.92;;;5.72;;
61806;SDS011;47726;52.766;6.606;2023-03-13T00:27:32;24.90;;;5.80;;
61806;SDS011;47726;52.766;6.606;2023-03-13T00:29:58;31.73;;;6.40;;
61806;SDS011;47726;52.766;6.606;2023-03-13T00:32:24;24.38;;;6.30;;
61806;SDS011;47726;52.766;6.606;2023-03-13T00:34:50;30.67;;;5.93;;
61806;SDS011;47726;52.766;6.606;2023-03-13T00:37:15;30.30;;;6.93;;
61806;SDS011;47726;52.766;6.606;2023-03-13T00:39:41;24.80;;;5.93;;
61806;SDS011;47726;52.766;6.606;2023-03-13T00:42:07;24.48;;;6.13;;
61806;SDS011;47726;52.766;6.606;2023-03-13T00:44:32;29.33;;;7.20;;
61806;SDS011;47726;52.766;6.606;2023-03-13T00:46:58;27.80;;;6.18;;
61806;SDS011;47726;52.766;6.606;2023-03-13T00:49:23;36.83;;;7.32;;
61806;SDS011;47726;52.766;6.606;2023-03-13T00:51:49;25.98;;;5.68;;
61806;SDS011;47726;52.766;6.606;2023-03-13T00:54:15;24.58;;;5.90;;
61806;SDS011;47726;52.766;6.606;2023-03-13T00:56:40;26.27;;;6.32;;
61806;SDS011;47726;52.766;6.606;2023-03-13T00:59:06;29.75;;;6.32;;
61806;SDS011;47726;52.766;6.606;2023-03-13T01:01:32;26.60;;;6.43;;
61806;SDS011;47726;52.766;6.606;2023-03-13T01:04:00;30.13;;;6.60;;
61806;SDS011;47726;52.766;6.606;2023-03-13T01:06:30;32.20;;;6.85;;
61806;SDS011;47726;52.766;6.606;2023-03-13T01:08:57;28.98;;;6.10;;
61806;SDS011;47726;52.766;6.606;2023-03-13T01:11:24;29.15;;;6.80;;
61806;SDS011;47726;52.766;6.606;2023-03-13T01:13:53;24.48;;;5.70;;
61806;SDS011;47726;52.766;6.606;2023-03-13T01:16:20;25.70;;;5.78;;
61806;SDS011;47726;52.766;6.606;2023-03-13T01:18:50;23.08;;;5.75;;
61806;SDS011;47726;52.766;6.606;2023-03-13T01:21:20;26.23;;;6.72;;
61806;SDS011;47726;52.766;6.606;2023-03-13T01:23:47;26.88;;;6.10;;
61806;SDS011;47726;52.766;6.606;2023-03-13T01:26:14;24.63;;;5.68;;
61806;SDS011;47726;52.766;6.606;2023-03-13T01:28:40;26.17;;;6.28;;
61806;SDS011;47726;52.766;6.606;2023-03-13T01:31:16;25.13;;;6.47;;
61806;SDS011;47726;52.766;6.606;2023-03-13T01:33:44;26.80;;;6.03;;
61806;SDS011;47726;52.766;6.606;2023-03-13T01:36:10;25.45;;;5.78;;
61806;SDS011;47726;52.766;6.606;2023-03-13T01:38:37;28.08;;;6.40;;
61806;SDS011;47726;52.766;6.606;2023-03-13T01:41:03;26.70;;;6.10;;
61806;SDS011;47726;52.766;6.606;2023-03-13T01:43:31;32.08;;;6.65;;
61806;SDS011;47726;52.766;6.606;2023-03-13T01:51:09;29.00;;;5.80;;
61806;SDS011;47726;52.766;6.606;2023-03-13T01:53:39;29.42;;;6.78;;
61806;SDS011;47726;52.766;6.606;2023-03-13T01:56:09;22.98;;;6.22;;
61806;SDS011;47726;52.766;6.606;2023-03-13T01:58:39;28.35;;;6.35;;
61806;SDS011;47726;52.766;6.606;2023-03-13T02:01:05;23.00;;;6.10;;
61806;SDS011;47726;52.766;6.606;2023-03-13T02:03:31;26.10;;;5.88;;
61806;SDS011;47726;52.766;6.606;2023-03-13T02:05:57;26.00;;;5.97;;
61806;SDS011;47726;52.766;6.606;2023-03-13T02:08:24;28.20;;;6.30;;
61806;SDS011;47726;52.766;6.606;2023-03-13T02:11:03;24.25;;;6.10;;
61806;SDS011;47726;52.766;6.606;2023-03-13T02:13:33;26.88;;;6.28;;
61806;SDS011;47726;52.766;6.606;2023-03-13T02:15:58;25.80;;;5.70;;
61806;SDS011;47726;52.766;6.606;2023-03-13T02:18:25;22.25;;;5.65;;
61806;SDS011;47726;52.766;6.606;2023-03-13T02:20:50;22.80;;;5.70;;
61806;SDS011;47726;52.766;6.606;2023-03-13T02:23:27;18.50;;;5.50;;
61806;SDS011;47726;52.766;6.606;2023-03-13T02:25:59;19.55;;;5.25;;
61806;SDS011;47726;52.766;6.606;2023-03-13T02:28:32;18.88;;;5.25;;
61806;SDS011;47726;52.766;6.606;2023-03-13T02:31:03;16.35;;;5.30;;
61806;SDS011;47726;52.766;6.606;2023-03-13T02:33:29;15.63;;;5.00;;
61806;SDS011;47726;52.766;6.606;2023-03-13T02:36:00;18.13;;;5.18;;
61806;SDS011;47726;52.766;6.606;2023-03-13T02:38:28;16.45;;;5.10;;
61806;SDS011;47726;52.766;6.606;2023-03-13T02:40:54;15.43;;;4.75;;
61806;SDS011;47726;52.766;6.606;2023-03-13T02:43:34;17.25;;;4.60;;
61806;SDS011;47726;52.766;6.606;2023-03-13T02:46:14;15.52;;;4.35;;
61806;SDS011;47726;52.766;6.606;2023-03-13T02:48:43;13.13;;;4.43;;
61806;SDS011;47726;52.766;6.606;2023-03-13T02:51:16;9.35;;;3.85;;
61806;SDS011;47726;52.766;6.606;2023-03-13T02:54:11;10.15;;;3.92;;
61806;SDS011;47726;52.766;6.606;2023-03-13T02:56:40;12.00;;;3.83;;
61806;SDS011;47726;52.766;6.606;2023-03-13T02:59:07;11.15;;;4.05;;
61806;SDS011;47726;52.766;6.606;2023-03-13T03:01:32;10.38;;;4.10;;
61806;SDS011;47726;52.766;6.606;2023-03-13T03:03:58;9.73;;;3.95;;
61806;SDS011;47726;52.766;6.606;2023-03-13T03:06:24;10.55;;;3.70;;
61806;SDS011;47726;52.766;6.606;2023-03-13T03:08:49;11.63;;;3.70;;
61806;SDS011;47726;52.766;6.606;2023-03-13T03:11:15;8.25;;;3.50;;
61806;SDS011;47726;52.766;6.606;2023-03-13T03:13:41;11.65;;;3.88;;
61806;SDS011;47726;52.766;6.606;2023-03-13T03:16:07;8.57;;;3.63;;
61806;SDS011;47726;52.766;6.606;2023-03-13T03:18:35;7.13;;;3.63;;
61806;SDS011;47726;52.766;6.606;2023-03-13T03:21:01;7.40;;;3.38;;
61806;SDS011;47726;52.766;6.606;2023-03-13T03:23:30;6.97;;;3.50;;
61806;SDS011;47726;52.766;6.606;2023-03-13T03:26:00;6.82;;;3.67;;
61806;SDS011;47726;52.766;6.606;2023-03-13T03:28:27;7.93;;;3.50;;
61806;SDS011;47726;52.766;6.606;2023-03-13T03:30:52;7.47;;;3.40;;
61806;SDS011;47726;52.766;6.606;2023-03-13T03:33:19;10.27;;;3.90;;
61806;SDS011;47726;52.766;6.606;2023-03-13T03:35:46;7.88;;;3.70;;
61806;SDS011;47726;52.766;6.606;2023-03-13T03:38:11;7.63;;;3.75;;
61806;SDS011;47726;52.766;6.606;2023-03-13T03:40:37;8.82;;;4.00;;
61806;SDS011;47726;52.766;6.606;2023-03-13T03:43:02;7.28;;;3.72;;
61806;SDS011;47726;52.766;6.606;2023-03-13T03:45:28;8.20;;;3.90;;
61806;SDS011;47726;52.766;6.606;2023-03-13T03:47:54;9.07;;;3.97;;
61806;SDS011;47726;52.766;6.606;2023-03-13T03:50:19;8.02;;;4.03;;
61806;SDS011;47726;52.766;6.606;2023-03-13T03:52:45;11.10;;;4.00;;
61806;SDS011;47726;52.766;6.606;2023-03-13T03:55:10;8.65;;;4.00;;
61806;SDS011;47726;52.766;6.606;2023-03-13T03:57:36;7.65;;;3.92;;
61806;SDS011;47726;52.766;6.606;2023-03-13T04:00:02;8.60;;;4.07;;
61806;SDS011;47726;52.766;6.606;2023-03-13T04:02:29;7.57;;;3.90;;
61806;SDS011;47726;52.766;6.606;2023-03-13T04:04:54;8.30;;;4.20;;
61806;SDS011;47726;52.766;6.606;2023-03-13T04:07:20;9.20;;;4.07;;
61806;SDS011;47726;52.766;6.606;2023-03-13T04:09:45;9.40;;;4.35;;
61806;SDS011;47726;52.766;6.606;2023-03-13T04:12:11;8.35;;;4.10;;
61806;SDS011;47726;52.766;6.606;2023-03-13T04:14:37;7.13;;;4.35;;
61806;SDS011;47726;52.766;6.606;2023-03-13T04:17:02;8.75;;;4.20;;
61806;SDS011;47726;52.766;6.606;2023-03-13T04:19:28;8.18;;;4.47;;
61806;SDS011;47726;52.766;6.606;2023-03-13T04:21:54;8.68;;;4.30;;
61806;SDS011;47726;52.766;6.606;2023-03-13T04:24:19;7.38;;;4.05;;
61806;SDS011;47726;52.766;6.606;2023-03-13T04:26:45;6.90;;;4.13;;
61806;SDS011;47726;52.766;6.606;2023-03-13T04:29:10;6.40;;;4.32;;
61806;SDS011;47726;52.766;6.606;2023-03-13T04:31:36;7.35;;;4.70;;
61806;SDS011;47726;52.766;6.606;2023-03-13T04:34:01;7.55;;;4.40;;
61806;SDS011;47726;52.766;6.606;2023-03-13T04:36:27;7.50;;;4.60;;
61806;SDS011;47726;52.766;6.606;2023-03-13T04:38:52;5.93;;;4.47;;
61806;SDS011;47726;52.766;6.606;2023-03-13T04:41:18;10.13;;;4.95;;
61806;SDS011;47726;52.766;6.606;2023-03-13T04:43:43;7.32;;;5.10;;
61806;SDS011;47726;52.766;6.606;2023-03-13T04:46:09;9.95;;;5.38;;
61806;SDS011;47726;52.766;6.606;2023-03-13T04:48:35;7.63;;;5.53;;
61806;SDS011;47726;52.766;6.606;2023-03-13T04:51:00;11.20;;;5.82;;
61806;SDS011;47726;52.766;6.606;2023-03-13T04:53:26;8.90;;;5.65;;
61806;SDS011;47726;52.766;6.606;2023-03-13T04:55:51;8.77;;;6.07;;
61806;SDS011;47726;52.766;6.606;2023-03-13T04:58:17;9.02;;;6.47;;
61806;SDS011;47726;52.766;6.606;2023-03-13T05:00:42;8.65;;;5.88;;
61806;SDS011;47726;52.766;6.606;2023-03-13T05:03:08;9.30;;;6.25;;
61806;SDS011;47726;52.766;6.606;2023-03-13T05:05:34;8.52;;;6.03;;
61806;SDS011;47726;52.766;6.606;2023-03-13T05:07:59;8.85;;;6.07;;
61806;SDS011;47726;52.766;6.606;2023-03-13T05:10:25;8.30;;;5.90;;
61806;SDS011;47726;52.766;6.606;2023-03-13T05:12:51;10.07;;;6.68;;
61806;SDS011;47726;52.766;6.606;2023-03-13T05:15:17;8.77;;;6.50;;
61806;SDS011;47726;52.766;6.606;2023-03-13T05:17:42;10.90;;;6.75;;
61806;SDS011;47726;52.766;6.606;2023-03-13T05:20:08;10.02;;;6.50;;
61806;SDS011;47726;52.766;6.606;2023-03-13T05:22:36;12.00;;;7.47;;
61806;SDS011;47726;52.766;6.606;2023-03-13T05:25:02;11.00;;;7.18;;
61806;SDS011;47726;52.766;6.606;2023-03-13T05:27:29;10.02;;;6.85;;
61806;SDS011;47726;52.766;6.606;2023-03-13T05:29:54;10.55;;;7.20;;
61806;SDS011;47726;52.766;6.606;2023-03-13T05:32:20;10.65;;;7.68;;
61806;SDS011;47726;52.766;6.606;2023-03-13T05:34:45;11.80;;;7.85;;
61806;SDS011;47726;52.766;6.606;2023-03-13T05:37:11;10.82;;;7.45;;
61806;SDS011;47726;52.766;6.606;2023-03-13T05:39:37;11.82;;;7.20;;
61806;SDS011;47726;52.766;6.606;2023-03-13T05:42:02;10.90;;;7.80;;
61806;SDS011;47726;52.766;6.606;2023-03-13T05:44:28;10.95;;;7.53;;
61806;SDS011;47726;52.766;6.606;2023-03-13T05:46:53;13.00;;;8.35;;
61806;SDS011;47726;52.766;6.606;2023-03-13T05:49:19;12.27;;;7.60;;
61806;SDS011;47726;52.766;6.606;2023-03-13T05:51:45;12.20;;;8.20;;
61806;SDS011;47726;52.766;6.606;2023-03-13T05:54:10;11.73;;;8.20;;
61806;SDS011;47726;52.766;6.606;2023-03-13T05:56:36;10.48;;;7.57;;
61806;SDS011;47726;52.766;6.606;2023-03-13T05:59:01;11.05;;;7.93;;
61806;SDS011;47726;52.766;6.606;2023-03-13T06:01:27;12.63;;;7.55;;
61806;SDS011;47726;52.766;6.606;2023-03-13T06:03:53;10.73;;;7.35;;
61806;SDS011;47726;52.766;6.606;2023-03-13T06:06:18;11.55;;;7.35;;
61806;SDS011;47726;52.766;6.606;2023-03-13T06:08:44;11.80;;;7.45;;
61806;SDS011;47726;52.766;6.606;2023-03-13T06:11:09;11.48;;;7.30;;
61806;SDS011;47726;52.766;6.606;2023-03-13T06:13:37;13.95;;;7.35;;
61806;SDS011;47726;52.766;6.606;2023-03-13T06:16:03;10.80;;;7.18;;
61806;SDS011;47726;52.766;6.606;2023-03-13T06:18:29;10.07;;;7.28;;
61806;SDS011;47726;52.766;6.606;2023-03-13T06:20:55;9.98;;;7.00;;
61806;SDS011;47726;52.766;6.606;2023-03-13T06:23:23;10.52;;;6.70;;
61806;SDS011;47726;52.766;6.606;2023-03-13T06:25:48;11.95;;;7.03;;
61806;SDS011;47726;52.766;6.606;2023-03-13T06:28:14;11.73;;;7.38;;
61806;SDS011;47726;52.766;6.606;2023-03-13T06:30:40;11.95;;;6.78;;
61806;SDS011;47726;52.766;6.606;2023-03-13T06:33:06;14.60;;;6.85;;
61806;SDS011;47726;52.766;6.606;2023-03-13T06:35:31;12.98;;;6.65;;
61806;SDS011;47726;52.766;6.606;2023-03-13T06:37:57;15.98;;;6.97;;
61806;SDS011;47726;52.766;6.606;2023-03-13T06:40:22;14.77;;;6.63;;
61806;SDS011;47726;52.766;6.606;2023-03-13T06:42:48;13.00;;;6.50;;
61806;SDS011;47726;52.766;6.606;2023-03-13T06:45:16;13.88;;;6.30;;
61806;SDS011;47726;52.766;6.606;2023-03-13T06:47:42;12.32;;;5.65;;
61806;SDS011;47726;52.766;6.606;2023-03-13T06:50:08;13.90;;;6.07;;
61806;SDS011;47726;52.766;6.606;2023-03-13T06:52:33;15.32;;;6.30;;
61806;SDS011;47726;52.766;6.606;2023-03-13T06:54:59;12.18;;;5.45;;
61806;SDS011;47726;52.766;6.606;2023-03-13T06:57:25;17.42;;;5.95;;
61806;SDS011;47726;52.766;6.606;2023-03-13T06:59:51;10.95;;;5.70;;
61806;SDS011;47726;52.766;6.606;2023-03-13T07:02:16;19.40;;;5.90;;
61806;SDS011;47726;52.766;6.606;2023-03-13T07:04:42;12.48;;;5.72;;
61806;SDS011;47726;52.766;6.606;2023-03-13T07:07:08;13.13;;;5.25;;
61806;SDS011;47726;52.766;6.606;2023-03-13T07:09:33;12.80;;;5.40;;
61806;SDS011;47726;52.766;6.606;2023-03-13T07:11:59;13.43;;;5.28;;
61806;SDS011;47726;52.766;6.606;2023-03-13T07:14:24;16.23;;;5.20;;
61806;SDS011;47726;52.766;6.606;2023-03-13T07:16:50;11.52;;;4.72;;
61806;SDS011;47726;52.766;6.606;2023-03-13T07:19:16;12.30;;;5.13;;
61806;SDS011;47726;52.766;6.606;2023-03-13T07:21:41;14.52;;;5.00;;
61806;SDS011;47726;52.766;6.606;2023-03-13T07:24:08;13.02;;;4.85;;
61806;SDS011;47726;52.766;6.606;2023-03-13T07:26:34;12.90;;;4.90;;
61806;SDS011;47726;52.766;6.606;2023-03-13T07:28:59;10.38;;;4.90;;
61806;SDS011;47726;52.766;6.606;2023-03-13T07:31:25;13.20;;;4.90;;
61806;SDS011;47726;52.766;6.606;2023-03-13T07:33:52;11.13;;;4.25;;
61806;SDS011;47726;52.766;6.606;2023-03-13T07:36:20;12.93;;;4.80;;
61806;SDS011;47726;52.766;6.606;2023-03-13T07:38:50;14.35;;;4.60;;
61806;SDS011;47726;52.766;6.606;2023-03-13T07:41:16;9.02;;;4.30;;
61806;SDS011;47726;52.766;6.606;2023-03-13T07:43:43;11.77;;;4.40;;
61806;SDS011;47726;52.766;6.606;2023-03-13T07:46:10;10.60;;;4.35;;
61806;SDS011;47726;52.766;6.606;2023-03-13T07:48:38;11.80;;;4.40;;
61806;SDS011;47726;52.766;6.606;2023-03-13T07:51:06;12.23;;;3.92;;
61806;SDS011;47726;52.766;6.606;2023-03-13T07:53:43;11.32;;;4.40;;
61806;SDS011;47726;52.766;6.606;2023-03-13T07:56:11;13.15;;;4.30;;
61806;SDS011;47726;52.766;6.606;2023-03-13T07:58:39;9.43;;;4.10;;
61806;SDS011;47726;52.766;6.606;2023-03-13T08:01:16;8.95;;;4.10;;
61806;SDS011;47726;52.766;6.606;2023-03-13T08:03:46;11.80;;;4.22;;
61806;SDS011;47726;52.766;6.606;2023-03-13T08:06:20;8.35;;;3.70;;
61806;SDS011;47726;52.766;6.606;2023-03-13T08:08:47;9.20;;;3.60;;
61806;SDS011;47726;52.766;6.606;2023-03-13T08:11:14;8.32;;;3.65;;
61806;SDS011;47726;52.766;6.606;2023-03-13T08:13:45;8.83;;;3.60;;
61806;SDS011;47726;52.766;6.606;2023-03-13T08:16:15;7.15;;;3.42;;
61806;SDS011;47726;52.766;6.606;2023-03-13T08:18:43;8.80;;;3.53;;
61806;SDS011;47726;52.766;6.606;2023-03-13T08:21:11;9.80;;;3.70;;
61806;SDS011;47726;52.766;6.606;2023-03-13T08:23:38;8.73;;;3.75;;
61806;SDS011;47726;52.766;6.606;2023-03-13T08:26:08;8.32;;;3.40;;
61806;SDS011;47726;52.766;6.606;2023-03-13T08:28:36;6.97;;;3.65;;
61806;SDS011;47726;52.766;6.606;2023-03-13T08:31:09;8.55;;;3.28;;
61806;SDS011;47726;52.766;6.606;2023-03-13T08:33:36;7.25;;;3.65;;
61806;SDS011;47726;52.766;6.606;2023-03-13T08:36:16;8.48;;;3.50;;
61806;SDS011;47726;52.766;6.606;2023-03-13T08:38:45;7.68;;;3.40;;
61806;SDS011;47726;52.766;6.606;2023-03-13T08:41:16;5.95;;;3.20;;
61806;SDS011;47726;52.766;6.606;2023-03-13T08:43:43;8.37;;;3.30;;
61806;SDS011;47726;52.766;6.606;2023-03-13T08:46:09;7.68;;;3.38;;
61806;SDS011;47726;52.766;6.606;2023-03-13T08:48:35;5.45;;;3.35;;
61806;SDS011;47726;52.766;6.606;2023-03-13T08:53:29;7.88;;;3.25;;
61806;SDS011;47726;52.766;6.606;2023-03-13T08:55:55;7.38;;;3.10;;
61806;SDS011;47726;52.766;6.606;2023-03-13T08:58:21;6.10;;;3.05;;
61806;SDS011;47726;52.766;6.606;2023-03-13T09:00:47;6.10;;;2.97;;
61806;SDS011;47726;52.766;6.606;2023-03-13T09:03:12;7.07;;;3.00;;
61806;SDS011;47726;52.766;6.606;2023-03-13T09:05:38;9.90;;;3.30;;
61806;SDS011;47726;52.766;6.606;2023-03-13T09:08:04;6.45;;;3.13;;
61806;SDS011;47726;52.766;6.606;2023-03-13T09:10:31;9.73;;;2.90;;
61806;SDS011;47726;52.766;6.606;2023-03-13T09:12:57;7.60;;;3.25;;
61806;SDS011;47726;52.766;6.606;2023-03-13T09:15:23;6.82;;;3.10;;
61806;SDS011;47726;52.766;6.606;2023-03-13T09:17:49;7.38;;;3.03;;
61806;SDS011;47726;52.766;6.606;2023-03-13T09:20:14;9.65;;;3.10;;
61806;SDS011;47726;52.766;6.606;2023-03-13T09:22:40;7.72;;;2.70;;
61806;SDS011;47726;52.766;6.606;2023-03-13T09:25:06;9.90;;;3.08;;
61806;SDS011;47726;52.766;6.606;2023-03-13T09:27:31;8.73;;;2.90;;
61806;SDS011;47726;52.766;6.606;2023-03-13T09:29:57;9.63;;;3.13;;
61806;SDS011;47726;52.766;6.606;2023-03-13T09:32:23;7.05;;;2.80;;
61806;SDS011;47726;52.766;6.606;2023-03-13T09:34:49;5.97;;;2.50;;
61806;SDS011;47726;52.766;6.606;2023-03-13T09:37:14;8.55;;;2.85;;
61806;SDS011;47726;52.766;6.606;2023-03-13T09:39:40;5.65;;;2.60;;
61806;SDS011;47726;52.766;6.606;2023-03-13T09:44:36;6.20;;;2.63;;
61806;SDS011;47726;52.766;6.606;2023-03-13T09:47:19;7.68;;;2.60;;
61806;SDS011;47726;52.766;6.606;2023-03-13T09:49:56;8.90;;;2.80;;
61806;SDS011;47726;52.766;6.606;2023-03-13T09:52:30;8.25;;;2.53;;
61806;SDS011;47726;52.766;6.606;2023-03-13T09:55:10;5.95;;;2.55;;
61806;SDS011;47726;52.766;6.606;2023-03-13T10:00:30;4.55;;;2.60;;
61806;SDS011;47726;52.766;6.606;2023-03-13T10:05:33;7.70;;;2.65;;
61806;SDS011;47726;52.766;6.606;2023-03-13T10:08:15;7.28;;;2.80;;
61806;SDS011;47726;52.766;6.606;2023-03-13T10:13:43;9.48;;;2.80;;
61806;SDS011;47726;52.766;6.606;2023-03-13T10:16:34;10.80;;;2.85;;
61806;SDS011;47726;52.766;6.606;2023-03-13T10:19:22;8.23;;;2.60;;
61806;SDS011;47726;52.766;6.606;2023-03-13T10:22:02;10.07;;;2.90;;
61806;SDS011;47726;52.766;6.606;2023-03-13T10:24:54;9.82;;;2.70;;
61806;SDS011;47726;52.766;6.606;2023-03-13T10:27:28;9.52;;;2.88;;
61806;SDS011;47726;52.766;6.606;2023-03-13T10:29:54;11.38;;;3.20;;
61806;SDS011;47726;52.766;6.606;2023-03-13T10:32:19;9.65;;;2.95;;
61806;SDS011;47726;52.766;6.606;2023-03-13T10:34:49;10.57;;;2.70;;
61806;SDS011;47726;52.766;6.606;2023-03-13T10:37:28;9.20;;;2.97;;
61806;SDS011;47726;52.766;6.606;2023-03-13T10:43:02;10.25;;;3.03;;
61806;SDS011;47726;52.766;6.606;2023-03-13T10:45:30;8.75;;;3.10;;
61806;SDS011;47726;52.766;6.606;2023-03-13T10:48:01;13.33;;;3.20;;
61806;SDS011;47726;52.766;6.606;2023-03-13T10:50:32;8.95;;;2.60;;
61806;SDS011;47726;52.766;6.606;2023-03-13T10:53:06;8.23;;;2.58;;
61806;SDS011;47726;52.766;6.606;2023-03-13T10:55:44;8.68;;;2.58;;
61806;SDS011;47726;52.766;6.606;2023-03-13T10:58:12;7.65;;;2.65;;
61806;SDS011;47726;52.766;6.606;2023-03-13T11:00:44;8.10;;;3.08;;
61806;SDS011;47726;52.766;6.606;2023-03-13T11:03:23;7.75;;;2.95;;
61806;SDS011;47726;52.766;6.606;2023-03-13T11:06:00;8.15;;;2.67;;
61806;SDS011;47726;52.766;6.606;2023-03-13T11:08:28;7.60;;;2.58;;
61806;SDS011;47726;52.766;6.606;2023-03-13T11:13:31;8.02;;;2.60;;
61806;SDS011;47726;52.766;6.606;2023-03-13T11:16:21;8.73;;;2.60;;
61806;SDS011;47726;52.766;6.606;2023-03-13T11:24:54;6.97;;;2.38;;
61806;SDS011;47726;52.766;6.606;2023-03-13T11:27:29;5.60;;;2.13;;
61806;SDS011;47726;52.766;6.606;2023-03-13T11:33:17;3.83;;;1.80;;
61806;SDS011;47726;52.766;6.606;2023-03-13T11:38:39;5.45;;;1.98;;
61806;SDS011;47726;52.766;6.606;2023-03-13T11:44:17;4.65;;;1.80;;
61806;SDS011;47726;52.766;6.606;2023-03-13T11:46:58;4.63;;;1.90;;
61806;SDS011;47726;52.766;6.606;2023-03-13T11:50:25;4.93;;;1.95;;
61806;SDS011;47726;52.766;6.606;2023-03-13T11:58:52;6.32;;;2.10;;
61806;SDS011;47726;52.766;6.606;2023-03-13T12:01:34;5.20;;;1.95;;
61806;SDS011;47726;52.766;6.606;2023-03-13T12:04:16;6.75;;;2.10;;
61806;SDS011;47726;52.766;6.606;2023-03-13T12:06:59;5.63;;;1.98;;
61806;SDS011;47726;52.766;6.606;2023-03-13T12:09:45;8.13;;;2.20;;
61806;SDS011;47726;52.766;6.606;2023-03-13T12:12:29;6.70;;;2.15;;
61806;SDS011;47726;52.766;6.606;2023-03-13T12:15:22;6.60;;;2.08;;
61806;SDS011;47726;52.766;6.606;2023-03-13T12:18:08;7.35;;;2.15;;
61806;SDS011;47726;52.766;6.606;2023-03-13T12:23:18;8.70;;;2.40;;
61806;SDS011;47726;52.766;6.606;2023-03-13T12:29:03;8.90;;;2.20;;
61806;SDS011;47726;52.766;6.606;2023-03-13T12:31:46;6.35;;;2.00;;
61806;SDS011;47726;52.766;6.606;2023-03-13T12:34:21;7.78;;;2.35;;
61806;SDS011;47726;52.766;6.606;2023-03-13T12:37:09;7.80;;;2.13;;
61806;SDS011;47726;52.766;6.606;2023-03-13T12:39:44;11.77;;;2.53;;
61806;SDS011;47726;52.766;6.606;2023-03-13T12:45:14;5.25;;;1.95;;
61806;SDS011;47726;52.766;6.606;2023-03-13T12:53:23;9.70;;;2.10;;
61806;SDS011;47726;52.766;6.606;2023-03-13T12:56:11;4.80;;;1.90;;
61806;SDS011;47726;52.766;6.606;2023-03-13T12:59:01;6.65;;;2.20;;
61806;SDS011;47726;52.766;6.606;2023-03-13T13:01:36;7.80;;;2.00;;
61806;SDS011;47726;52.766;6.606;2023-03-13T13:04:06;6.25;;;2.30;;
61806;SDS011;47726;52.766;6.606;2023-03-13T13:09:19;7.72;;;2.00;;
61806;SDS011;47726;52.766;6.606;2023-03-13T13:11:48;7.20;;;2.00;;
61806;SDS011;47726;52.766;6.606;2023-03-13T13:19:48;6.78;;;2.13;;
61806;SDS011;47726;52.766;6.606;2023-03-13T13:37:38;10.35;;;2.35;;
61806;SDS011;47726;52.766;6.606;2023-03-13T13:40:46;23.25;;;2.70;;
61806;SDS011;47726;52.766;6.606;2023-03-13T13:42:55;8.07;;;2.35;;
61806;SDS011;47726;52.766;6.606;2023-03-13T13:48:12;9.02;;;2.30;;
61806;SDS011;47726;52.766;6.606;2023-03-13T13:59:04;10.90;;;2.58;;
61806;SDS011;47726;52.766;6.606;2023-03-13T14:01:31;8.88;;;2.20;;
61806;SDS011;47726;52.766;6.606;2023-03-13T14:04:06;9.70;;;2.50;;
61806;SDS011;47726;52.766;6.606;2023-03-13T14:06:51;10.05;;;2.70;;
61806;SDS011;47726;52.766;6.606;2023-03-13T14:09:26;13.88;;;2.88;;
61806;SDS011;47726;52.766;6.606;2023-03-13T14:11:55;11.70;;;2.70;;
61806;SDS011;47726;52.766;6.606;2023-03-13T14:14:21;9.07;;;2.90;;
61806;SDS011;47726;52.766;6.606;2023-03-13T14:16:48;13.20;;;2.72;;
61806;SDS011;47726;52.766;6.606;2023-03-13T14:21:58;14.45;;;2.90;;
61806;SDS011;47726;52.766;6.606;2023-03-13T14:24:26;13.40;;;3.28;;
61806;SDS011;47726;52.766;6.606;2023-03-13T14:26:51;14.50;;;3.60;;
61806;SDS011;47726;52.766;6.606;2023-03-13T14:29:17;13.60;;;3.13;;
61806;SDS011;47726;52.766;6.606;2023-03-13T14:31:51;12.55;;;2.85;;
61806;SDS011;47726;52.766;6.606;2023-03-13T14:34:16;10.30;;;2.92;;
61806;SDS011;47726;52.766;6.606;2023-03-13T14:36:52;12.45;;;3.22;;
61806;SDS011;47726;52.766;6.606;2023-03-13T14:42:13;14.45;;;2.90;;
61806;SDS011;47726;52.766;6.606;2023-03-13T14:44:41;12.15;;;2.85;;
61806;SDS011;47726;52.766;6.606;2023-03-13T14:47:18;14.32;;;3.10;;
61806;SDS011;47726;52.766;6.606;2023-03-13T14:49:46;14.15;;;3.17;;
61806;SDS011;47726;52.766;6.606;2023-03-13T14:55:11;16.08;;;3.50;;
61806;SDS011;47726;52.766;6.606;2023-03-13T14:57:55;19.67;;;4.03;;
61806;SDS011;47726;52.766;6.606;2023-03-13T15:02:51;18.35;;;4.38;;
61806;SDS011;47726;52.766;6.606;2023-03-13T15:05:49;14.60;;;3.28;;
61806;SDS011;47726;52.766;6.606;2023-03-13T15:14:28;15.90;;;3.70;;
61806;SDS011;47726;52.766;6.606;2023-03-13T15:17:11;15.13;;;3.28;;
61806;SDS011;47726;52.766;6.606;2023-03-13T15:19:41;15.85;;;3.63;;
61806;SDS011;47726;52.766;6.606;2023-03-13T15:22:10;12.30;;;3.20;;
61806;SDS011;47726;52.766;6.606;2023-03-13T15:24:40;14.38;;;3.42;;
61806;SDS011;47726;52.766;6.606;2023-03-13T15:27:16;16.17;;;4.10;;
61806;SDS011;47726;52.766;6.606;2023-03-13T15:29:44;17.23;;;3.90;;
61806;SDS011;47726;52.766;6.606;2023-03-13T15:32:11;15.98;;;3.92;;
61806;SDS011;47726;52.766;6.606;2023-03-13T15:34:50;17.50;;;4.05;;
61806;SDS011;47726;52.766;6.606;2023-03-13T15:37:16;18.77;;;4.18;;
61806;SDS011;47726;52.766;6.606;2023-03-13T15:39:42;16.48;;;3.95;;
61806;SDS011;47726;52.766;6.606;2023-03-13T15:42:08;14.38;;;3.80;;
61806;SDS011;47726;52.766;6.606;2023-03-13T15:44:33;16.40;;;3.60;;
61806;SDS011;47726;52.766;6.606;2023-03-13T15:47:02;20.30;;;4.20;;
61806;SDS011;47726;52.766;6.606;2023-03-13T15:49:27;15.18;;;3.67;;
61806;SDS011;47726;52.766;6.606;2023-03-13T15:51:53;19.25;;;3.97;;
61806;SDS011;47726;52.766;6.606;2023-03-13T15:54:19;15.50;;;4.20;;
61806;SDS011;47726;52.766;6.606;2023-03-13T15:56:44;18.55;;;3.85;;
61806;SDS011;47726;52.766;6.606;2023-03-13T15:59:12;18.48;;;3.97;;
61806;SDS011;47726;52.766;6.606;2023-03-13T16:01:40;20.77;;;4.28;;
61806;SDS011;47726;52.766;6.606;2023-03-13T16:04:06;22.17;;;4.63;;
61806;SDS011;47726;52.766;6.606;2023-03-13T16:06:31;17.35;;;3.75;;
61806;SDS011;47726;52.766;6.606;2023-03-13T16:09:01;24.75;;;4.20;;
61806;SDS011;47726;52.766;6.606;2023-03-13T16:11:29;22.13;;;4.57;;
61806;SDS011;47726;52.766;6.606;2023-03-13T16:13:55;19.58;;;4.13;;
61806;SDS011;47726;52.766;6.606;2023-03-13T16:16:22;20.60;;;3.95;;
61806;SDS011;47726;52.766;6.606;2023-03-13T16:18:52;19.05;;;4.30;;
61806;SDS011;47726;52.766;6.606;2023-03-13T16:21:20;18.33;;;3.88;;
61806;SDS011;47726;52.766;6.606;2023-03-13T16:23:50;17.40;;;3.60;;
61806;SDS011;47726;52.766;6.606;2023-03-13T16:26:23;18.88;;;4.10;;
61806;SDS011;47726;52.766;6.606;2023-03-13T16:28:50;20.15;;;4.07;;
61806;SDS011;47726;52.766;6.606;2023-03-13T16:33:47;23.40;;;4.68;;
61806;SDS011;47726;52.766;6.606;2023-03-13T16:36:18;23.30;;;4.68;;
61806;SDS011;47726;52.766;6.606;2023-03-13T16:38:46;19.33;;;4.25;;
61806;SDS011;47726;52.766;6.606;2023-03-13T16:41:16;21.77;;;4.55;;
61806;SDS011;47726;52.766;6.606;2023-03-13T16:43:43;21.05;;;4.53;;
61806;SDS011;47726;52.766;6.606;2023-03-13T16:46:19;20.35;;;4.38;;